GAP525 RPLL-RPML
Flight info
| Callsign | GAP525 |
|---|---|
| Flight time | 1h 22m |
| Altitude | 33000 |
| Route | IPATA2V IPATA W25 BATAY W8 MCT W6A LUMVI |
| Aircraft | A20N/M-SDE2E3FGHIRWXY/LB1 |
Departure
| Time | 2026-05-07 04:27 |
|---|---|
| Airport | Ninoy Aquino International Airport (RPLL) |
Arrival
| Time | 2026-05-07 05:50 |
|---|---|
| Airport | Lumbia Airfield (RPML) |
| Time | Latitude | Longitude | Altitude | Speed | Heading |
|---|---|---|---|---|---|
| 2026-05-07 04:04 | 14.50908 | 121.01411 | 44 ft | 0 kts | 330° |
| 2026-05-07 04:17 | 14.50906 | 121.01412 | 44 ft | 2 kts | 330° |
| 2026-05-07 04:17 | 14.50894 | 121.01419 | 45 ft | 2 kts | 332° |
| 2026-05-07 04:17 | 14.50882 | 121.01426 | 47 ft | 2 kts | 334° |
| 2026-05-07 04:18 | 14.50870 | 121.01431 | 46 ft | 1 kts | 339° |
| 2026-05-07 04:18 | 14.50858 | 121.01436 | 43 ft | 2 kts | 344° |
| 2026-05-07 04:18 | 14.50845 | 121.01439 | 47 ft | 2 kts | 354° |
| 2026-05-07 04:18 | 14.50831 | 121.01439 | 48 ft | 2 kts | 15° |
| 2026-05-07 04:19 | 14.50820 | 121.01433 | 46 ft | 2 kts | 46° |
| 2026-05-07 04:19 | 14.50814 | 121.01426 | 49 ft | 1 kts | 58° |
| 2026-05-07 04:19 | 14.50813 | 121.01425 | 49 ft | 0 kts | 59° |
| 2026-05-07 04:20 | 14.50814 | 121.01426 | 47 ft | 0 kts | 59° |
| 2026-05-07 04:23 | 14.50822 | 121.01440 | 48 ft | 10 kts | 60° |
| 2026-05-07 04:23 | 14.50881 | 121.01546 | 43 ft | 21 kts | 60° |
| 2026-05-07 04:23 | 14.50953 | 121.01677 | 34 ft | 11 kts | 60° |
| 2026-05-07 04:23 | 14.50981 | 121.01727 | 30 ft | 1 kts | 60° |
| 2026-05-07 04:24 | 14.51038 | 121.01772 | 31 ft | 8 kts | 356° |
| 2026-05-07 04:24 | 14.51123 | 121.01689 | 31 ft | 32 kts | 319° |
| 2026-05-07 04:24 | 14.51325 | 121.01477 | 35 ft | 48 kts | 314° |
| 2026-05-07 04:24 | 14.51565 | 121.01231 | 41 ft | 47 kts | 315° |
| 2026-05-07 04:25 | 14.51795 | 121.00991 | 46 ft | 47 kts | 315° |
| 2026-05-07 04:25 | 14.51994 | 121.00786 | 48 ft | 22 kts | 315° |
| 2026-05-07 04:25 | 14.52124 | 121.00677 | 50 ft | 25 kts | 321° |
| 2026-05-07 04:25 | 14.52211 | 121.00552 | 52 ft | 14 kts | 248° |
| 2026-05-07 04:26 | 14.52200 | 121.00546 | 50 ft | 1 kts | 161° |
| 2026-05-07 04:26 | 14.52196 | 121.00570 | 50 ft | 6 kts | 104° |
| 2026-05-07 04:26 | 14.52165 | 121.00610 | 50 ft | 11 kts | 134° |
| 2026-05-07 04:26 | 14.51970 | 121.00811 | 46 ft | 73 kts | 135° |
| 2026-05-07 04:27 | 14.51461 | 121.01336 | 38 ft | 133 kts | 135° |
| 2026-05-07 04:27 | 14.50709 | 121.02088 | 224 ft | 159 kts | 137° |
| 2026-05-07 04:27 | 14.49868 | 121.02849 | 792 ft | 162 kts | 140° |
| 2026-05-07 04:27 | 14.48906 | 121.03472 | 1352 ft | 172 kts | 163° |
| 2026-05-07 04:28 | 14.47642 | 121.03383 | 1647 ft | 202 kts | 200° |
| 2026-05-07 04:28 | 14.46441 | 121.02452 | 1708 ft | 229 kts | 220° |
| 2026-05-07 04:28 | 14.44939 | 121.01706 | 1399 ft | 254 kts | 181° |
| 2026-05-07 04:28 | 14.43224 | 121.02130 | 1595 ft | 262 kts | 143° |
| 2026-05-07 04:29 | 14.41966 | 121.03472 | 2300 ft | 260 kts | 126° |
| 2026-05-07 04:29 | 14.40936 | 121.04961 | 2902 ft | 257 kts | 123° |
| 2026-05-07 04:29 | 14.39918 | 121.06484 | 3719 ft | 259 kts | 123° |
| 2026-05-07 04:29 | 14.38881 | 121.08008 | 4584 ft | 260 kts | 124° |
| 2026-05-07 04:30 | 14.37830 | 121.09526 | 5428 ft | 261 kts | 124° |
| 2026-05-07 04:30 | 14.36758 | 121.11055 | 6186 ft | 265 kts | 124° |
| 2026-05-07 04:30 | 14.35663 | 121.12609 | 6863 ft | 270 kts | 125° |
| 2026-05-07 04:30 | 14.34563 | 121.14160 | 7719 ft | 268 kts | 125° |
| 2026-05-07 04:31 | 14.33448 | 121.15730 | 8402 ft | 275 kts | 125° |
| 2026-05-07 04:31 | 14.32308 | 121.17336 | 9060 ft | 280 kts | 125° |
| 2026-05-07 04:31 | 14.31146 | 121.18970 | 9667 ft | 284 kts | 125° |
| 2026-05-07 04:31 | 14.29970 | 121.20621 | 10064 ft | 288 kts | 125° |
| 2026-05-07 04:32 | 14.28751 | 121.22336 | 10369 ft | 306 kts | 125° |
| 2026-05-07 04:32 | 14.27454 | 121.24157 | 10632 ft | 323 kts | 125° |
| 2026-05-07 04:32 | 14.26096 | 121.26065 | 10975 ft | 335 kts | 125° |
| 2026-05-07 04:32 | 14.24702 | 121.28019 | 11489 ft | 341 kts | 125° |
| 2026-05-07 04:33 | 14.23290 | 121.30000 | 12026 ft | 345 kts | 125° |
| 2026-05-07 04:33 | 14.21859 | 121.32006 | 12586 ft | 349 kts | 125° |
| 2026-05-07 04:33 | 14.20414 | 121.34033 | 13176 ft | 353 kts | 125° |
| 2026-05-07 04:33 | 14.18951 | 121.36084 | 13751 ft | 357 kts | 125° |
| 2026-05-07 04:34 | 14.17475 | 121.38155 | 14276 ft | 360 kts | 125° |
| 2026-05-07 04:34 | 14.15984 | 121.40244 | 14805 ft | 363 kts | 125° |
| 2026-05-07 04:34 | 14.14486 | 121.42342 | 15344 ft | 365 kts | 125° |
| 2026-05-07 04:34 | 14.12975 | 121.44457 | 15912 ft | 368 kts | 125° |
| 2026-05-07 04:35 | 14.11453 | 121.46590 | 16457 ft | 371 kts | 125° |
| 2026-05-07 04:35 | 14.09920 | 121.48739 | 17005 ft | 374 kts | 125° |
| 2026-05-07 04:35 | 14.08376 | 121.50900 | 17513 ft | 376 kts | 125° |
| 2026-05-07 04:35 | 14.06816 | 121.53080 | 18010 ft | 380 kts | 125° |
| 2026-05-07 04:36 | 14.05243 | 121.55282 | 18458 ft | 383 kts | 126° |
| 2026-05-07 04:36 | 14.03658 | 121.57498 | 18852 ft | 386 kts | 126° |
| 2026-05-07 04:36 | 14.02063 | 121.59730 | 19255 ft | 389 kts | 126° |
| 2026-05-07 04:36 | 14.00454 | 121.61980 | 19630 ft | 392 kts | 126° |
| 2026-05-07 04:37 | 13.98828 | 121.64251 | 19996 ft | 395 kts | 126° |
| 2026-05-07 04:37 | 13.97747 | 121.65761 | 20244 ft | 396 kts | 126° |
| 2026-05-07 04:37 | 13.96107 | 121.68050 | 20636 ft | 399 kts | 126° |
| 2026-05-07 04:37 | 13.94455 | 121.70356 | 21014 ft | 401 kts | 126° |
| 2026-05-07 04:38 | 13.92793 | 121.72677 | 21385 ft | 404 kts | 126° |
| 2026-05-07 04:38 | 13.91117 | 121.75017 | 21778 ft | 407 kts | 126° |
| 2026-05-07 04:38 | 13.89430 | 121.77372 | 22172 ft | 410 kts | 126° |
| 2026-05-07 04:38 | 13.87713 | 121.79723 | 22576 ft | 413 kts | 128° |
| 2026-05-07 04:39 | 13.85736 | 121.81870 | 22958 ft | 416 kts | 137° |
| 2026-05-07 04:39 | 13.83481 | 121.83817 | 23349 ft | 419 kts | 141° |
| 2026-05-07 04:39 | 13.81156 | 121.85633 | 23697 ft | 421 kts | 143° |
| 2026-05-07 04:39 | 13.78806 | 121.87381 | 24029 ft | 424 kts | 144° |
| 2026-05-07 04:40 | 13.76399 | 121.89142 | 24376 ft | 426 kts | 144° |
| 2026-05-07 04:40 | 13.73981 | 121.90914 | 24726 ft | 428 kts | 144° |
| 2026-05-07 04:40 | 13.71556 | 121.92705 | 25069 ft | 431 kts | 144° |
| 2026-05-07 04:40 | 13.69126 | 121.94516 | 25421 ft | 433 kts | 143° |
| 2026-05-07 04:41 | 13.66681 | 121.96348 | 25772 ft | 435 kts | 143° |
| 2026-05-07 04:41 | 13.64233 | 121.98190 | 26109 ft | 438 kts | 143° |
| 2026-05-07 04:41 | 13.61771 | 122.00046 | 26443 ft | 440 kts | 143° |
| 2026-05-07 04:41 | 13.59299 | 122.01911 | 26776 ft | 442 kts | 143° |
| 2026-05-07 04:42 | 13.56813 | 122.03785 | 27099 ft | 444 kts | 143° |
| 2026-05-07 04:42 | 13.54315 | 122.05667 | 27424 ft | 447 kts | 144° |
| 2026-05-07 04:42 | 13.51802 | 122.07559 | 27733 ft | 449 kts | 144° |
| 2026-05-07 04:42 | 13.49278 | 122.09459 | 28043 ft | 451 kts | 144° |
| 2026-05-07 04:43 | 13.46741 | 122.11368 | 28338 ft | 453 kts | 144° |
| 2026-05-07 04:43 | 13.44189 | 122.13287 | 28635 ft | 456 kts | 144° |
| 2026-05-07 04:43 | 13.41626 | 122.15214 | 28928 ft | 458 kts | 144° |
| 2026-05-07 04:43 | 13.39014 | 122.17177 | 29218 ft | 460 kts | 144° |
| 2026-05-07 04:44 | 13.36428 | 122.19121 | 29492 ft | 462 kts | 144° |
| 2026-05-07 04:44 | 13.33828 | 122.21074 | 29780 ft | 464 kts | 144° |
| 2026-05-07 04:44 | 13.31252 | 122.23008 | 30037 ft | 466 kts | 144° |
| 2026-05-07 04:44 | 13.28629 | 122.24978 | 30273 ft | 468 kts | 144° |
| 2026-05-07 04:45 | 13.26003 | 122.26949 | 30604 ft | 467 kts | 144° |
| 2026-05-07 04:45 | 13.23385 | 122.28914 | 30946 ft | 466 kts | 144° |
| 2026-05-07 04:45 | 13.20772 | 122.30874 | 31281 ft | 465 kts | 144° |
| 2026-05-07 04:45 | 13.18161 | 122.32833 | 31612 ft | 464 kts | 144° |
| 2026-05-07 04:46 | 13.15560 | 122.34784 | 31940 ft | 463 kts | 144° |
| 2026-05-07 04:46 | 13.12960 | 122.36733 | 32263 ft | 462 kts | 144° |
| 2026-05-07 04:46 | 13.10364 | 122.38679 | 32583 ft | 462 kts | 144° |
| 2026-05-07 04:46 | 13.07768 | 122.40624 | 32832 ft | 462 kts | 144° |
| 2026-05-07 04:47 | 13.02655 | 122.44454 | 32877 ft | 450 kts | 144° |
| 2026-05-07 04:47 | 12.97618 | 122.48225 | 32878 ft | 448 kts | 144° |
| 2026-05-07 04:48 | 12.92588 | 122.51987 | 32876 ft | 447 kts | 144° |
| 2026-05-07 04:48 | 12.87559 | 122.55747 | 32881 ft | 447 kts | 144° |
| 2026-05-07 04:49 | 12.82528 | 122.59507 | 32879 ft | 448 kts | 144° |
| 2026-05-07 04:49 | 12.77499 | 122.63264 | 32879 ft | 447 kts | 144° |
| 2026-05-07 04:50 | 12.72469 | 122.67020 | 32879 ft | 448 kts | 145° |
| 2026-05-07 04:50 | 12.67437 | 122.70775 | 32875 ft | 447 kts | 145° |
| 2026-05-07 04:51 | 12.62404 | 122.74530 | 32881 ft | 447 kts | 145° |
| 2026-05-07 04:51 | 12.57405 | 122.78257 | 32877 ft | 447 kts | 145° |
| 2026-05-07 04:52 | 12.52375 | 122.82005 | 32872 ft | 447 kts | 145° |
| 2026-05-07 04:52 | 12.47347 | 122.85750 | 32872 ft | 447 kts | 145° |
| 2026-05-07 04:53 | 12.42311 | 122.89499 | 32873 ft | 447 kts | 145° |
| 2026-05-07 04:53 | 12.37279 | 122.93243 | 32870 ft | 448 kts | 145° |
| 2026-05-07 04:54 | 12.32241 | 122.96991 | 32870 ft | 447 kts | 145° |
| 2026-05-07 04:54 | 12.27208 | 123.00731 | 32867 ft | 447 kts | 145° |
| 2026-05-07 04:55 | 12.22174 | 123.04472 | 32866 ft | 447 kts | 145° |
| 2026-05-07 04:55 | 12.17146 | 123.08206 | 32864 ft | 447 kts | 145° |
| 2026-05-07 04:56 | 12.12116 | 123.11940 | 32864 ft | 445 kts | 145° |
| 2026-05-07 04:56 | 12.07137 | 123.15634 | 32859 ft | 441 kts | 145° |
| 2026-05-07 04:57 | 12.02181 | 123.19310 | 32864 ft | 440 kts | 145° |
| 2026-05-07 04:57 | 11.97228 | 123.22980 | 32864 ft | 440 kts | 145° |
| 2026-05-07 04:58 | 11.92277 | 123.26649 | 32864 ft | 440 kts | 145° |
| 2026-05-07 04:58 | 11.87325 | 123.30316 | 32861 ft | 439 kts | 145° |
| 2026-05-07 04:59 | 11.82381 | 123.33976 | 32857 ft | 439 kts | 145° |
| 2026-05-07 04:59 | 11.77462 | 123.37615 | 32863 ft | 439 kts | 145° |
| 2026-05-07 05:00 | 11.72514 | 123.41275 | 32863 ft | 439 kts | 145° |
| 2026-05-07 05:00 | 11.67563 | 123.44934 | 32862 ft | 439 kts | 145° |
| 2026-05-07 05:01 | 11.62618 | 123.48588 | 32859 ft | 439 kts | 145° |
| 2026-05-07 05:01 | 11.57666 | 123.52246 | 32865 ft | 439 kts | 145° |
| 2026-05-07 05:02 | 11.52716 | 123.55901 | 32866 ft | 439 kts | 145° |
| 2026-05-07 05:02 | 11.47766 | 123.59553 | 32859 ft | 439 kts | 145° |
| 2026-05-07 05:03 | 11.42815 | 123.63205 | 32859 ft | 439 kts | 145° |
| 2026-05-07 05:03 | 11.37865 | 123.66854 | 32859 ft | 439 kts | 145° |
| 2026-05-07 05:04 | 11.32910 | 123.70505 | 32862 ft | 441 kts | 145° |
| 2026-05-07 05:04 | 11.27895 | 123.74197 | 32855 ft | 447 kts | 145° |
| 2026-05-07 05:05 | 11.22856 | 123.77907 | 32857 ft | 447 kts | 145° |
| 2026-05-07 05:05 | 11.17823 | 123.81613 | 32858 ft | 446 kts | 145° |
| 2026-05-07 05:06 | 11.12358 | 123.84515 | 32845 ft | 443 kts | 163° |
| 2026-05-07 05:06 | 11.09389 | 123.85316 | 32355 ft | 441 kts | 168° |
| 2026-05-07 05:06 | 11.06358 | 123.85955 | 31399 ft | 450 kts | 170° |
| 2026-05-07 05:07 | 11.03245 | 123.86509 | 30517 ft | 457 kts | 171° |
| 2026-05-07 05:07 | 11.00099 | 123.87025 | 29850 ft | 459 kts | 171° |
| 2026-05-07 05:07 | 10.96969 | 123.87528 | 29512 ft | 450 kts | 171° |
| 2026-05-07 05:07 | 10.93902 | 123.88028 | 28999 ft | 445 kts | 171° |
| 2026-05-07 05:08 | 10.90843 | 123.88536 | 28289 ft | 446 kts | 170° |
| 2026-05-07 05:08 | 10.87785 | 123.89055 | 27718 ft | 444 kts | 169° |
| 2026-05-07 05:08 | 10.84754 | 123.89575 | 27194 ft | 440 kts | 169° |
| 2026-05-07 05:08 | 10.81746 | 123.90095 | 26691 ft | 437 kts | 169° |
| 2026-05-07 05:09 | 10.78765 | 123.90612 | 26217 ft | 432 kts | 169° |
| 2026-05-07 05:09 | 10.75811 | 123.91126 | 25732 ft | 428 kts | 169° |
| 2026-05-07 05:09 | 10.72890 | 123.91634 | 25258 ft | 425 kts | 168° |
| 2026-05-07 05:09 | 10.69967 | 123.92143 | 24521 ft | 428 kts | 168° |
| 2026-05-07 05:10 | 10.67007 | 123.92657 | 23701 ft | 434 kts | 168° |
| 2026-05-07 05:10 | 10.64017 | 123.93176 | 22809 ft | 438 kts | 168° |
| 2026-05-07 05:10 | 10.61012 | 123.93697 | 22050 ft | 437 kts | 168° |
| 2026-05-07 05:10 | 10.58028 | 123.94213 | 21413 ft | 433 kts | 168° |
| 2026-05-07 05:11 | 10.55114 | 123.94717 | 20823 ft | 428 kts | 168° |
| 2026-05-07 05:11 | 10.52152 | 123.95228 | 20232 ft | 423 kts | 168° |
| 2026-05-07 05:11 | 10.49263 | 123.95727 | 19656 ft | 419 kts | 168° |
| 2026-05-07 05:11 | 10.46407 | 123.96220 | 19090 ft | 414 kts | 168° |
| 2026-05-07 05:12 | 10.43612 | 123.96704 | 18547 ft | 411 kts | 167° |
| 2026-05-07 05:12 | 10.40775 | 123.97194 | 17970 ft | 407 kts | 167° |
| 2026-05-07 05:12 | 10.37997 | 123.97675 | 17336 ft | 403 kts | 167° |
| 2026-05-07 05:12 | 10.35251 | 123.98150 | 16721 ft | 398 kts | 167° |
| 2026-05-07 05:13 | 10.32587 | 123.98649 | 16121 ft | 393 kts | 164° |
| 2026-05-07 05:13 | 10.29917 | 123.99362 | 15520 ft | 388 kts | 161° |
| 2026-05-07 05:13 | 10.27343 | 124.00134 | 14940 ft | 383 kts | 160° |
| 2026-05-07 05:13 | 10.24847 | 124.00927 | 14381 ft | 379 kts | 159° |
| 2026-05-07 05:14 | 10.22352 | 124.01746 | 13865 ft | 374 kts | 159° |
| 2026-05-07 05:14 | 10.19920 | 124.02553 | 13599 ft | 361 kts | 159° |
| 2026-05-07 05:14 | 10.17580 | 124.03331 | 13311 ft | 349 kts | 159° |
| 2026-05-07 05:14 | 10.15293 | 124.04090 | 12856 ft | 343 kts | 159° |
| 2026-05-07 05:15 | 10.13039 | 124.04838 | 12364 ft | 339 kts | 159° |
| 2026-05-07 05:15 | 10.10807 | 124.05576 | 11867 ft | 336 kts | 159° |
| 2026-05-07 05:15 | 10.08596 | 124.06306 | 11368 ft | 333 kts | 159° |
| 2026-05-07 05:15 | 10.06402 | 124.07028 | 10867 ft | 330 kts | 158° |
| 2026-05-07 05:16 | 10.04244 | 124.07737 | 10582 ft | 320 kts | 158° |
| 2026-05-07 05:16 | 10.02165 | 124.08417 | 10397 ft | 308 kts | 158° |
| 2026-05-07 05:16 | 10.00161 | 124.09072 | 10202 ft | 298 kts | 158° |
| 2026-05-07 05:16 | 9.98210 | 124.09712 | 9888 ft | 293 kts | 158° |
| 2026-05-07 05:17 | 9.96285 | 124.10345 | 9495 ft | 290 kts | 158° |
| 2026-05-07 05:17 | 9.94373 | 124.10975 | 9080 ft | 287 kts | 158° |
| 2026-05-07 05:17 | 9.92477 | 124.11600 | 8663 ft | 285 kts | 158° |
| 2026-05-07 05:17 | 9.90594 | 124.12220 | 8244 ft | 283 kts | 158° |
| 2026-05-07 05:18 | 9.88724 | 124.12835 | 7839 ft | 282 kts | 158° |
| 2026-05-07 05:18 | 9.86864 | 124.13447 | 7435 ft | 280 kts | 158° |
| 2026-05-07 05:18 | 9.85025 | 124.14050 | 7097 ft | 276 kts | 158° |
| 2026-05-07 05:18 | 9.83201 | 124.14648 | 6982 ft | 275 kts | 158° |
| 2026-05-07 05:19 | 9.81376 | 124.15247 | 6976 ft | 277 kts | 158° |
| 2026-05-07 05:19 | 9.79544 | 124.15849 | 6974 ft | 277 kts | 158° |
| 2026-05-07 05:19 | 9.77707 | 124.16453 | 6976 ft | 277 kts | 158° |
| 2026-05-07 05:19 | 9.75871 | 124.17056 | 6973 ft | 277 kts | 158° |
| 2026-05-07 05:20 | 9.74032 | 124.17658 | 6972 ft | 277 kts | 158° |
| 2026-05-07 05:20 | 9.72199 | 124.18259 | 6973 ft | 277 kts | 158° |
| 2026-05-07 05:20 | 9.70364 | 124.18861 | 6973 ft | 277 kts | 158° |
| 2026-05-07 05:20 | 9.68529 | 124.19462 | 6963 ft | 278 kts | 158° |
| 2026-05-07 05:21 | 9.66680 | 124.20067 | 6976 ft | 279 kts | 158° |
| 2026-05-07 05:21 | 9.62984 | 124.21279 | 6971 ft | 279 kts | 158° |
| 2026-05-07 05:21 | 9.61161 | 124.21877 | 6968 ft | 279 kts | 158° |
| 2026-05-07 05:22 | 9.59918 | 124.22285 | 6964 ft | 278 kts | 158° |
| 2026-05-07 05:22 | 9.57458 | 124.23090 | 6966 ft | 277 kts | 158° |
| 2026-05-07 05:22 | 9.55620 | 124.23692 | 6964 ft | 277 kts | 158° |
| 2026-05-07 05:22 | 9.54406 | 124.24089 | 6966 ft | 277 kts | 158° |
| 2026-05-07 05:23 | 9.51971 | 124.24887 | 6967 ft | 277 kts | 158° |
| 2026-05-07 05:23 | 9.50139 | 124.25486 | 6966 ft | 277 kts | 158° |
| 2026-05-07 05:23 | 9.48899 | 124.25891 | 6961 ft | 277 kts | 158° |
| 2026-05-07 05:23 | 9.47063 | 124.26492 | 6965 ft | 278 kts | 158° |
| 2026-05-07 05:24 | 9.45223 | 124.27095 | 6963 ft | 278 kts | 158° |
| 2026-05-07 05:24 | 9.43378 | 124.27700 | 6960 ft | 279 kts | 158° |
| 2026-05-07 05:24 | 9.41536 | 124.28301 | 6959 ft | 278 kts | 158° |
| 2026-05-07 05:24 | 9.39703 | 124.28900 | 6959 ft | 277 kts | 158° |
| 2026-05-07 05:25 | 9.37868 | 124.29500 | 6958 ft | 277 kts | 158° |
| 2026-05-07 05:25 | 9.36031 | 124.30102 | 6960 ft | 278 kts | 159° |
| 2026-05-07 05:25 | 9.34194 | 124.30703 | 6953 ft | 278 kts | 159° |
| 2026-05-07 05:25 | 9.32355 | 124.31304 | 6953 ft | 277 kts | 159° |
| 2026-05-07 05:26 | 9.30516 | 124.31906 | 6952 ft | 278 kts | 159° |
| 2026-05-07 05:26 | 9.28674 | 124.32508 | 6953 ft | 278 kts | 159° |
| 2026-05-07 05:26 | 9.26855 | 124.33103 | 6948 ft | 278 kts | 159° |
| 2026-05-07 05:26 | 9.25013 | 124.33705 | 6949 ft | 278 kts | 159° |
| 2026-05-07 05:27 | 9.23170 | 124.34308 | 6950 ft | 279 kts | 159° |
| 2026-05-07 05:27 | 9.21327 | 124.34910 | 6953 ft | 278 kts | 159° |
| 2026-05-07 05:27 | 9.19485 | 124.35512 | 6948 ft | 278 kts | 159° |
| 2026-05-07 05:27 | 9.17646 | 124.36112 | 6951 ft | 278 kts | 159° |
| 2026-05-07 05:28 | 9.15807 | 124.36713 | 6949 ft | 278 kts | 159° |
| 2026-05-07 05:28 | 9.13967 | 124.37314 | 6949 ft | 278 kts | 159° |
| 2026-05-07 05:28 | 9.12127 | 124.37916 | 6951 ft | 278 kts | 159° |
| 2026-05-07 05:28 | 9.10280 | 124.38519 | 6949 ft | 279 kts | 159° |
| 2026-05-07 05:29 | 9.08436 | 124.39121 | 6951 ft | 279 kts | 159° |
| 2026-05-07 05:29 | 9.06590 | 124.39724 | 6948 ft | 278 kts | 159° |
| 2026-05-07 05:29 | 9.04799 | 124.40307 | 6935 ft | 262 kts | 159° |
| 2026-05-07 05:29 | 9.03120 | 124.40850 | 6936 ft | 245 kts | 159° |
| 2026-05-07 05:30 | 9.01570 | 124.41350 | 6958 ft | 224 kts | 159° |
| 2026-05-07 05:30 | 9.00149 | 124.41808 | 6941 ft | 205 kts | 158° |
| 2026-05-07 05:30 | 8.98855 | 124.42227 | 6942 ft | 186 kts | 158° |
| 2026-05-07 05:30 | 8.97693 | 124.42603 | 6947 ft | 164 kts | 158° |
| 2026-05-07 05:31 | 8.96653 | 124.42941 | 6946 ft | 154 kts | 157° |
| 2026-05-07 05:31 | 8.95638 | 124.43277 | 6948 ft | 154 kts | 157° |
| 2026-05-07 05:31 | 8.94622 | 124.43616 | 6948 ft | 154 kts | 157° |
| 2026-05-07 05:31 | 8.93605 | 124.43954 | 6946 ft | 154 kts | 157° |
| 2026-05-07 05:32 | 8.92584 | 124.44292 | 6944 ft | 154 kts | 157° |
| 2026-05-07 05:32 | 8.91566 | 124.44626 | 6943 ft | 154 kts | 157° |
| 2026-05-07 05:32 | 8.90547 | 124.44960 | 6948 ft | 154 kts | 158° |
| 2026-05-07 05:32 | 8.89529 | 124.45293 | 6944 ft | 154 kts | 158° |
| 2026-05-07 05:33 | 8.88510 | 124.45625 | 6943 ft | 154 kts | 158° |
| 2026-05-07 05:33 | 8.87493 | 124.45956 | 6943 ft | 154 kts | 158° |
| 2026-05-07 05:33 | 8.86475 | 124.46288 | 6944 ft | 154 kts | 158° |
| 2026-05-07 05:33 | 8.85456 | 124.46621 | 6945 ft | 154 kts | 158° |
| 2026-05-07 05:34 | 8.84438 | 124.46953 | 6944 ft | 154 kts | 158° |
| 2026-05-07 05:34 | 8.83420 | 124.47284 | 6943 ft | 154 kts | 158° |
| 2026-05-07 05:34 | 8.82403 | 124.47615 | 6946 ft | 154 kts | 158° |
| 2026-05-07 05:34 | 8.81386 | 124.47947 | 6944 ft | 154 kts | 158° |
| 2026-05-07 05:35 | 8.80367 | 124.48279 | 6946 ft | 154 kts | 158° |
| 2026-05-07 05:35 | 8.79352 | 124.48617 | 6944 ft | 153 kts | 154° |
| 2026-05-07 05:35 | 8.78403 | 124.49089 | 6946 ft | 152 kts | 147° |
| 2026-05-07 05:35 | 8.77448 | 124.49567 | 6943 ft | 154 kts | 155° |
| 2026-05-07 05:36 | 8.76433 | 124.49885 | 6942 ft | 155 kts | 161° |
| 2026-05-07 05:36 | 8.75389 | 124.50139 | 6944 ft | 154 kts | 162° |
| 2026-05-07 05:36 | 8.74349 | 124.50384 | 6944 ft | 153 kts | 162° |
| 2026-05-07 05:36 | 8.73325 | 124.50646 | 6932 ft | 149 kts | 160° |
| 2026-05-07 05:37 | 8.72346 | 124.50919 | 6941 ft | 144 kts | 159° |
| 2026-05-07 05:37 | 8.71386 | 124.51209 | 6951 ft | 145 kts | 158° |
| 2026-05-07 05:37 | 8.70407 | 124.51520 | 6743 ft | 152 kts | 158° |
| 2026-05-07 05:37 | 8.69364 | 124.51861 | 6317 ft | 159 kts | 158° |
| 2026-05-07 05:38 | 8.68319 | 124.52204 | 5995 ft | 157 kts | 158° |
| 2026-05-07 05:38 | 8.67286 | 124.52541 | 5673 ft | 155 kts | 159° |
| 2026-05-07 05:38 | 8.66259 | 124.52876 | 5331 ft | 155 kts | 159° |
| 2026-05-07 05:38 | 8.65240 | 124.53208 | 5061 ft | 150 kts | 160° |
| 2026-05-07 05:39 | 8.64253 | 124.53528 | 5031 ft | 148 kts | 159° |
| 2026-05-07 05:39 | 8.63286 | 124.53842 | 4966 ft | 142 kts | 159° |
| 2026-05-07 05:39 | 8.62356 | 124.54144 | 4958 ft | 140 kts | 159° |
| 2026-05-07 05:39 | 8.61427 | 124.54446 | 4864 ft | 142 kts | 159° |
| 2026-05-07 05:40 | 8.60446 | 124.54769 | 4412 ft | 153 kts | 160° |
| 2026-05-07 05:40 | 8.59430 | 124.55101 | 4070 ft | 153 kts | 160° |
| 2026-05-07 05:40 | 8.58450 | 124.55420 | 3932 ft | 145 kts | 160° |
| 2026-05-07 05:40 | 8.57492 | 124.55731 | 3952 ft | 145 kts | 160° |
| 2026-05-07 05:41 | 8.56514 | 124.56050 | 3651 ft | 153 kts | 160° |
| 2026-05-07 05:41 | 8.55490 | 124.56385 | 3299 ft | 155 kts | 161° |
| 2026-05-07 05:41 | 8.54473 | 124.56717 | 3030 ft | 151 kts | 161° |
| 2026-05-07 05:41 | 8.53508 | 124.57030 | 2915 ft | 142 kts | 162° |
| 2026-05-07 05:42 | 8.52566 | 124.57335 | 2834 ft | 143 kts | 162° |
| 2026-05-07 05:42 | 8.51613 | 124.57645 | 2586 ft | 147 kts | 162° |
| 2026-05-07 05:42 | 8.50645 | 124.57960 | 2331 ft | 143 kts | 162° |
| 2026-05-07 05:42 | 8.49705 | 124.58265 | 2132 ft | 141 kts | 162° |
| 2026-05-07 05:43 | 8.48772 | 124.58568 | 1984 ft | 140 kts | 162° |
| 2026-05-07 05:43 | 8.47841 | 124.58871 | 1971 ft | 141 kts | 162° |
| 2026-05-07 05:43 | 8.46889 | 124.59181 | 1680 ft | 149 kts | 162° |
| 2026-05-07 05:43 | 8.45938 | 124.59490 | 1454 ft | 142 kts | 162° |
| 2026-05-07 05:44 | 8.45019 | 124.59827 | 1454 ft | 141 kts | 156° |
| 2026-05-07 05:44 | 8.44162 | 124.60331 | 1471 ft | 144 kts | 143° |
| 2026-05-07 05:44 | 8.43460 | 124.61030 | 1458 ft | 141 kts | 126° |
| 2026-05-07 05:44 | 8.42974 | 124.61895 | 1216 ft | 145 kts | 110° |
| 2026-05-07 05:45 | 8.42766 | 124.62871 | 934 ft | 140 kts | 91° |
| 2026-05-07 05:45 | 8.42858 | 124.63838 | 932 ft | 139 kts | 75° |
| 2026-05-07 05:45 | 8.43212 | 124.64746 | 965 ft | 139 kts | 59° |
| 2026-05-07 05:45 | 8.43801 | 124.65515 | 963 ft | 139 kts | 42° |
| 2026-05-07 05:46 | 8.44580 | 124.66089 | 967 ft | 139 kts | 26° |
| 2026-05-07 05:46 | 8.45478 | 124.66417 | 966 ft | 137 kts | 9° |
| 2026-05-07 05:46 | 8.46427 | 124.66481 | 983 ft | 137 kts | 354° |
| 2026-05-07 05:46 | 8.47355 | 124.66281 | 963 ft | 137 kts | 338° |
| 2026-05-07 05:47 | 8.48197 | 124.65836 | 765 ft | 139 kts | 324° |
| 2026-05-07 05:47 | 8.48867 | 124.65133 | 480 ft | 140 kts | 302° |
| 2026-05-07 05:47 | 8.49173 | 124.64213 | 472 ft | 139 kts | 276° |
| 2026-05-07 05:47 | 8.49021 | 124.63255 | 465 ft | 140 kts | 249° |
| 2026-05-07 05:48 | 8.48438 | 124.62478 | 451 ft | 140 kts | 219° |
| 2026-05-07 05:48 | 8.47561 | 124.62077 | 458 ft | 140 kts | 191° |
| 2026-05-07 05:48 | 8.46587 | 124.62051 | 472 ft | 141 kts | 180° |
| 2026-05-07 05:48 | 8.45618 | 124.61972 | 424 ft | 139 kts | 190° |
| 2026-05-07 05:49 | 8.44669 | 124.61788 | 501 ft | 138 kts | 193° |
| 2026-05-07 05:49 | 8.43726 | 124.61553 | 714 ft | 141 kts | 197° |
| 2026-05-07 05:49 | 8.42773 | 124.61348 | 739 ft | 140 kts | 188° |
| 2026-05-07 05:49 | 8.41848 | 124.61198 | 620 ft | 126 kts | 197° |
| 2026-05-07 05:50 | 8.41164 | 124.61030 | 625 ft | 63 kts | 193° |
| 2026-05-07 05:50 | 8.40959 | 124.60983 | 620 ft | 22 kts | 191° |
| 2026-05-07 05:50 | 8.40822 | 124.60993 | 620 ft | 19 kts | 136° |
| 2026-05-07 05:50 | 8.40730 | 124.61067 | 613 ft | 13 kts | 133° |
| 2026-05-07 05:51 | 8.40723 | 124.61074 | 613 ft | 0 kts | 134° |